Time;durP1;ratioP1;P1;durP2;ratioP2;P2;SDS_P1;SDS_P2;PMS_P1;PMS_P2;Temp;Humidity;BMP_temperature;BMP_pressure;BME280_temperature;BME280_humidity;BME280_pressure;Samples;Min_cycle;Max_cycle;Signal;HPM_P1;HPM_P2
2021/03/24 00:00:49;;;;;;;4.10;1.90;;;;;;;-1.65;64.15;99367.98;117784;1205;22980;-64
2021/03/24 00:03:16;;;;;;;7.30;2.13;;;;;;;-1.65;64.25;99375.17;117642;1205;22850;-64
2021/03/24 00:05:48;;;;;;;3.30;1.87;;;;;;;-1.67;64.46;99378.02;117753;1206;23041;-62
2021/03/24 00:08:17;;;;;;;4.03;1.90;;;;;;;-1.67;64.42;99387.88;117708;1205;22767;-62
2021/03/24 00:10:50;;;;;;;4.65;1.90;;;;;;;-1.70;64.36;99381.05;117825;1206;22849;-62
2021/03/24 00:13:18;;;;;;;6.10;1.90;;;;;;;-1.70;64.51;99377.55;117672;1205;22876;-62
2021/03/24 00:15:47;;;;;;;5.73;2.40;;;;;;;-1.70;64.58;99393.57;117746;1205;22852;-62
2021/03/24 00:18:14;;;;;;;3.90;1.93;;;;;;;-1.72;64.40;99382.23;117659;1206;22833;-62
2021/03/24 00:20:43;;;;;;;9.70;2.53;;;;;;;-1.70;64.58;99393.57;117796;1205;22884;-62
2021/03/24 00:23:12;;;;;;;4.83;2.70;;;;;;;-1.71;64.79;99392.74;117676;1205;23813;-62
2021/03/24 00:25:40;;;;;;;5.90;2.50;;;;;;;-1.71;64.78;99399.92;117776;1206;22888;-62
2021/03/24 00:28:07;;;;;;;3.10;2.13;;;;;;;-1.73;65.01;99402.77;117446;1206;22887;-62
2021/03/24 00:30:40;;;;;;;5.90;1.77;;;;;;;-1.73;64.74;99404.64;117818;1205;22932;-62
2021/03/24 00:33:17;;;;;;;2.75;1.70;;;;;;;-1.74;64.84;99402.98;117694;1205;22936;-62
2021/03/24 00:35:45;;;;;;;3.77;2.00;;;;;;;-1.75;64.86;99403.99;117778;1206;22844;-62
2021/03/24 00:38:14;;;;;;;3.70;1.90;;;;;;;-1.76;65.05;99405.00;117678;1205;22916;-62
2021/03/24 00:40:46;;;;;;;4.27;2.10;;;;;;;-1.78;65.19;99402.51;115025;1206;27187;-62
2021/03/24 00:43:26;;;;;;;3.95;2.30;;;;;;;-1.79;65.32;99398.18;117681;1206;22859;-62
2021/03/24 00:45:54;;;;;;;5.63;1.93;;;;;;;-1.80;65.29;99396.52;117792;1204;22993;-62
2021/03/24 00:48:28;;;;;;;2.55;1.95;;;;;;;-1.79;65.20;99400.84;117687;1205;23852;-62
2021/03/24 00:50:59;;;;;;;8.45;2.23;;;;;;;-1.79;65.38;99411.53;117822;1205;22980;-62
2021/03/24 00:53:27;;;;;;;5.80;1.93;;;;;;;-1.81;65.31;99411.71;117653;1205;22884;-62
2021/03/24 00:55:55;;;;;;;4.07;2.20;;;;;;;-1.80;65.03;99407.20;117773;1205;22890;-62
2021/03/24 00:58:23;;;;;;;2.97;1.70;;;;;;;-1.82;64.96;99398.53;117742;1205;22844;-62
2021/03/24 01:00:51;;;;;;;2.97;1.50;;;;;;;-1.82;64.83;99404.70;117743;1205;22827;-62
2021/03/24 01:03:19;;;;;;;6.00;2.20;;;;;;;-1.82;64.99;99407.38;117766;1205;22913;-62
2021/03/24 01:05:48;;;;;;;6.60;1.83;;;;;;;-1.82;64.58;99415.39;117660;1206;22958;-62
2021/03/24 01:08:23;;;;;;;7.07;2.10;;;;;;;-1.81;64.76;99422.39;117763;1205;22797;-62
2021/03/24 01:10:51;;;;;;;3.35;2.00;;;;;;;-1.83;64.76;99423.58;117726;1206;22859;-62
2021/03/24 01:13:19;;;;;;;2.65;1.65;;;;;;;-1.82;64.43;99428.73;117768;1205;22798;-62
2021/03/24 01:15:48;;;;;;;3.90;1.90;;;;;;;-1.82;64.36;99434.08;116539;1208;23125;-62
2021/03/24 01:18:17;;;;;;;5.97;2.50;;;;;;;-1.84;64.50;99436.09;117734;1206;22995;-62
2021/03/24 01:20:45;;;;;;;5.03;2.00;;;;;;;-1.84;64.10;99437.94;117690;1206;22924;-62
2021/03/24 01:23:14;;;;;;;4.33;2.17;;;;;;;-1.86;64.20;99438.11;117787;1205;22962;-62
2021/03/24 01:25:41;;;;;;;3.33;1.90;;;;;;;-1.85;64.20;99447.78;117659;1206;23631;-62
2021/03/24 01:28:18;;;;;;;4.70;1.80;;;;;;;-1.86;64.40;99447.96;117767;1205;22882;-62
2021/03/24 01:30:45;;;;;;;3.50;1.73;;;;;;;-1.89;64.51;99441.17;117692;1205;23759;-62
2021/03/24 01:33:33;;;;;;;3.33;1.90;;;;;;;-1.89;64.32;99449.18;117777;1206;22908;-62
2021/03/24 01:36:01;;;;;;;2.85;1.50;;;;;;;-1.92;64.25;99448.70;117713;1206;22990;-62
2021/03/24 01:38:28;;;;;;;4.67;1.30;;;;;;;-1.93;64.13;99455.88;117760;1206;23460;-62
2021/03/24 01:40:59;;;;;;;3.63;1.70;;;;;;;-1.93;64.31;99471.06;117616;1206;22841;-62
2021/03/24 01:43:34;;;;;;;3.45;1.90;;;;;;;-1.93;64.47;99461.22;117752;1205;22806;-62
2021/03/24 01:46:23;;;;;;;4.20;1.97;;;;;;;-1.93;64.36;99452.38;116248;1206;23123;-64
2021/03/24 01:48:53;;;;;;;3.23;1.93;;;;;;;-1.95;64.51;99455.22;113698;1206;23107;-63
2021/03/24 01:51:26;;;;;;;3.70;1.73;;;;;;;-1.96;64.52;99456.23;117683;1205;23069;-64
2021/03/24 01:53:54;;;;;;;2.53;1.73;;;;;;;-1.98;64.79;99460.91;117525;1205;22896;-64
2021/03/24 01:56:22;;;;;;;3.25;1.80;;;;;;;-1.99;64.65;99459.25;117684;1205;22903;-64
2021/03/24 01:58:50;;;;;;;4.33;1.90;;;;;;;-1.99;64.89;99464.59;117758;1206;22836;-64
2021/03/24 02:01:18;;;;;;;4.07;1.80;;;;;;;-2.02;64.71;99467.61;117665;1205;22994;-64
2021/03/24 02:03:46;;;;;;;2.30;1.47;;;;;;;-2.03;64.93;99462.48;117681;1205;22861;-64
2021/03/24 02:06:38;;;;;;;3.80;1.97;;;;;;;-2.06;64.83;99460.16;117645;1205;23908;-64
2021/03/24 02:09:39;;;;;;;3.50;2.00;;;;;;;-2.07;64.69;99464.67;117567;1206;22841;-64
2021/03/24 02:12:15;;;;;;;2.50;1.50;;;;;;;-2.09;65.12;99464.02;117501;1205;23673;-64
2021/03/24 02:14:50;;;;;;;2.88;1.90;;;;;;;-2.20;64.91;99451.92;117522;1205;23442;-64
2021/03/24 02:17:19;;;;;;;3.97;1.77;;;;;;;-2.11;65.42;99470.53;117636;1206;22860;-62
2021/03/24 02:19:53;;;;;;;3.60;1.73;;;;;;;-2.09;65.03;99471.19;117749;1206;22810;-62
2021/03/24 02:22:23;;;;;;;2.10;1.40;;;;;;;-2.11;64.97;99467.86;117650;1206;22867;-62
2021/03/24 02:25:02;;;;;;;3.17;1.50;;;;;;;-2.12;65.20;99475.03;117721;1206;22891;-62
2021/03/24 02:27:34;;;;;;;2.30;1.65;;;;;;;-2.13;65.33;99476.05;117612;1205;23413;-62
2021/03/24 02:30:30;;;;;;;3.33;1.93;;;;;;;-2.14;65.20;99482.39;117795;1209;22965;-62
2021/03/24 02:33:02;;;;;;;3.65;2.10;;;;;;;-2.16;65.38;99476.39;117638;1206;22819;-62
2021/03/24 02:35:32;;;;;;;4.30;2.43;;;;;;;-2.18;65.39;99484.60;117763;1205;22975;-62
2021/03/24 02:38:03;;;;;;;3.20;2.23;;;;;;;-2.18;65.56;99486.44;117673;1206;22909;-62
2021/03/24 02:40:32;;;;;;;3.70;2.67;;;;;;;-2.19;65.69;99474.10;117760;1206;22844;-62
2021/03/24 02:43:00;;;;;;;3.53;1.87;;;;;;;-2.20;65.70;99486.61;117654;1205;23432;-62
2021/03/24 02:45:30;;;;;;;3.57;2.00;;;;;;;-2.20;65.45;99478.61;117767;1205;23397;-62
2021/03/24 02:48:00;;;;;;;3.30;1.90;;;;;;;-2.19;65.35;99482.11;117413;1206;22928;-62
2021/03/24 02:50:28;;;;;;;3.43;2.07;;;;;;;-2.20;65.19;99483.11;117769;1209;22813;-62
2021/03/24 02:52:58;;;;;;;5.90;2.05;;;;;;;-2.20;65.48;99483.94;117646;1205;22833;-62
2021/03/24 02:55:25;;;;;;;4.07;2.53;;;;;;;-2.20;65.25;99483.11;117766;1205;22779;-62
2021/03/24 02:57:53;;;;;;;3.25;1.95;;;;;;;-2.20;65.39;99494.62;117748;1205;22981;-63
2021/03/24 03:00:21;;;;;;;5.47;2.67;;;;;;;-2.19;65.43;99496.28;117648;1205;22831;-62
2021/03/24 03:03:01;;;;;;;5.23;2.43;;;;;;;-2.20;65.68;99502.63;117742;1205;22887;-62
2021/03/24 03:05:30;;;;;;;4.77;2.60;;;;;;;-2.18;65.78;99495.28;117677;1206;22851;-62
2021/03/24 03:08:08;;;;;;;3.13;1.87;;;;;;;-2.20;65.44;99497.29;117681;1205;23759;-62
2021/03/24 03:11:05;;;;;;;5.43;2.67;;;;;;;-2.20;65.74;99499.13;117696;1205;23311;-62
2021/03/24 03:13:36;;;;;;;6.87;2.20;;;;;;;-2.22;65.46;99498.47;117569;1206;22940;-62
2021/03/24 03:16:13;;;;;;;3.13;2.37;;;;;;;-2.22;65.45;99493.13;117711;1206;22813;-62
2021/03/24 03:19:03;;;;;;;6.10;2.40;;;;;;;-2.22;65.95;99493.13;117708;1205;22827;-62
2021/03/24 03:21:48;;;;;;;3.47;2.20;;;;;;;-2.21;66.09;99505.47;117728;1206;22959;-62
2021/03/24 03:24:34;;;;;;;2.97;2.17;;;;;;;-2.21;65.92;99508.97;117679;1206;22970;-62
2021/03/24 03:27:02;;;;;;;4.67;2.17;;;;;;;-2.21;65.92;99500.96;114624;1209;23249;-56
2021/03/24 03:29:30;;;;;;;3.37;2.17;;;;;;;-2.22;65.90;99506.47;117670;1205;23060;-56
2021/03/24 03:31:57;;;;;;;5.13;2.53;;;;;;;-2.23;65.98;99510.98;117825;1206;22982;-57
2021/03/24 03:34:25;;;;;;;4.27;2.27;;;;;;;-2.23;65.87;99510.98;117746;1205;23720;-57
2021/03/24 03:36:54;;;;;;;5.50;2.63;;;;;;;-2.22;66.16;99511.81;117447;1205;22992;-56
2021/03/24 03:39:24;;;;;;;5.25;2.55;;;;;;;-2.23;66.05;99510.14;117740;1205;22878;-57
2021/03/24 03:41:52;;;;;;;5.00;2.40;;;;;;;-2.23;66.19;99518.16;117652;1206;22916;-57
2021/03/24 03:44:20;;;;;;;4.67;3.03;;;;;;;-2.22;65.91;99514.48;117746;1205;22809;-57
2021/03/24 03:46:55;;;;;;;5.07;2.40;;;;;;;-2.21;65.96;99519.64;117719;1206;22803;-57
2021/03/24 03:49:23;;;;;;;4.67;2.77;;;;;;;-2.22;65.94;99517.98;117744;1205;22951;-56
2021/03/24 03:51:56;;;;;;;5.50;2.60;;;;;;;-2.22;66.06;99515.31;117686;1206;22864;-56
2021/03/24 03:54:33;;;;;;;7.80;2.75;;;;;;;-2.22;65.79;99525.16;117768;1206;22884;-57
2021/03/24 03:57:39;;;;;;;5.15;2.50;;;;;;;-2.23;65.69;99528.83;117643;1206;23758;-57
2021/03/24 04:00:18;;;;;;;3.75;2.40;;;;;;;-2.24;65.82;99527.99;117760;1205;23698;-57
2021/03/24 04:02:50;;;;;;;8.80;2.57;;;;;;;-2.24;66.04;99529.83;117644;1205;23274;-57
2021/03/24 04:05:20;;;;;;;5.13;2.20;;;;;;;-2.24;65.93;99533.33;117715;1206;22859;-57
2021/03/24 04:07:53;;;;;;;5.30;2.97;;;;;;;-2.23;66.05;99534.16;117669;1206;23517;-57
2021/03/24 04:10:21;;;;;;;3.80;2.53;;;;;;;-2.23;66.19;99534.16;117782;1205;22797;-57
2021/03/24 04:12:49;;;;;;;5.27;2.40;;;;;;;-2.23;65.88;99547.50;117409;1206;22833;-57
2021/03/24 04:15:18;;;;;;;5.80;2.00;;;;;;;-2.22;65.65;99541.16;117783;1205;23076;-56
2021/03/24 04:17:48;;;;;;;7.90;3.20;;;;;;;-2.22;65.74;99539.33;117646;1206;22907;-56
2021/03/24 04:20:17;;;;;;;5.93;2.23;;;;;;;-2.20;66.05;99545.33;117728;1206;23543;-57
2021/03/24 04:22:46;;;;;;;7.23;3.33;;;;;;;-2.20;65.56;99542.66;117677;1206;23876;-57
2021/03/24 04:25:18;;;;;;;3.77;2.80;;;;;;;-2.20;65.73;99542.66;117715;1206;22895;-58
2021/03/24 04:27:46;;;;;;;5.05;2.95;;;;;;;-2.18;65.84;99551.33;117423;1206;22883;-58
2021/03/24 04:30:14;;;;;;;2.80;2.30;;;;;;;-2.18;65.67;99550.48;117532;1206;23321;-58
2021/03/24 04:32:42;;;;;;;3.70;2.30;;;;;;;-2.17;65.61;99554.82;117695;1206;22929;-58
2021/03/24 04:35:12;;;;;;;3.47;2.50;;;;;;;-2.17;65.82;99560.16;117730;1206;22800;-58
2021/03/24 04:37:42;;;;;;;5.30;2.80;;;;;;;-2.17;65.70;99571.67;117429;1206;23466;-58
2021/03/24 04:40:22;;;;;;;5.90;2.70;;;;;;;-2.18;65.61;99570.00;117732;1205;22839;-57
2021/03/24 04:43:07;;;;;;;4.27;2.33;;;;;;;-2.18;65.29;99569.17;117685;1205;22818;-57
2021/03/24 04:46:09;;;;;;;9.13;2.50;;;;;;;-2.16;65.57;99586.64;117528;1205;23784;-57
2021/03/24 04:48:41;;;;;;;2.73;2.20;;;;;;;-2.15;65.62;99579.47;117523;1205;22838;-57
2021/03/24 04:51:17;;;;;;;4.45;2.60;;;;;;;-2.12;65.84;99587.14;117749;1206;22802;-57
2021/03/24 04:53:48;;;;;;;4.17;2.33;;;;;;;-2.10;65.64;99584.30;117692;1205;23331;-57
2021/03/24 04:56:16;;;;;;;6.60;2.83;;;;;;;-2.10;65.42;99587.80;117724;1205;22879;-57
2021/03/24 04:58:46;;;;;;;13.17;2.80;;;;;;;-2.09;65.65;99583.29;117703;1205;22771;-57
2021/03/24 05:01:26;;;;;;;4.70;3.10;;;;;;;-2.08;65.15;99585.78;117776;1206;22809;-57
2021/03/24 05:03:56;;;;;;;7.20;2.50;;;;;;;-2.08;65.19;99575.11;117644;1205;23678;-57
2021/03/24 05:06:29;;;;;;;8.37;3.87;;;;;;;-2.05;65.11;99580.11;117765;1205;22817;-57
2021/03/24 05:08:57;;;;;;;14.20;4.93;;;;;;;-2.02;65.13;99597.61;117696;1205;22948;-57
2021/03/24 05:11:38;;;;;;;10.17;3.97;;;;;;;-2.02;64.76;99581.59;117533;1205;22965;-57
2021/03/24 05:14:20;;;;;;;12.40;5.63;;;;;;;-1.99;65.04;99584.72;117599;1206;22894;-57
2021/03/24 05:16:48;;;;;;;9.45;3.60;;;;;;;-1.98;64.92;99586.39;117768;1206;23683;-58
2021/03/24 05:19:25;;;;;;;12.60;5.10;;;;;;;-1.95;64.94;99586.05;117603;1205;23812;-56
2021/03/24 05:22:09;;;;;;;9.77;4.37;;;;;;;-1.94;64.72;99598.38;117701;1205;22894;-56
2021/03/24 05:24:38;;;;;;;9.60;4.10;;;;;;;-1.90;64.76;99583.69;117638;1205;22843;-56
2021/03/24 05:27:25;;;;;;;10.13;4.40;;;;;;;-1.87;64.70;99588.65;117706;1205;23073;-56
2021/03/24 05:29:56;;;;;;;7.98;3.00;;;;;;;-1.81;64.40;99587.95;117661;1206;23766;-56
2021/03/24 05:32:31;;;;;;;6.50;3.50;;;;;;;-1.74;64.26;99595.27;117558;1205;23463;-55
2021/03/24 05:34:59;;;;;;;7.73;3.77;;;;;;;-1.69;64.05;99595.55;117349;1208;23103;-56
2021/03/24 05:37:28;;;;;;;6.60;3.30;;;;;;;-1.65;64.05;99588.85;117429;1207;22994;-55
2021/03/24 05:40:24;;;;;;;7.03;4.07;;;;;;;-1.62;64.02;99596.52;117164;1209;22844;-56
2021/03/24 05:42:55;;;;;;;7.00;4.20;;;;;;;-1.57;64.17;99608.31;117449;1208;22818;-55
2021/03/24 05:45:30;;;;;;;6.30;3.25;;;;;;;-1.53;64.09;99622.98;117244;1208;23144;-56
2021/03/24 05:48:01;;;;;;;6.07;2.80;;;;;;;-1.51;63.65;99622.81;117443;1208;23548;-57
2021/03/24 05:50:34;;;;;;;5.57;2.73;;;;;;;-1.50;63.64;99621.80;117405;1208;22954;-55
2021/03/24 05:53:29;;;;;;;9.35;4.00;;;;;;;-1.50;63.38;99617.30;117479;1209;22926;-55
2021/03/24 05:56:36;;;;;;;5.27;3.10;;;;;;;-1.49;63.30;99618.95;117321;1209;23441;-56
2021/03/24 05:59:24;;;;;;;7.00;3.40;;;;;;;-1.47;63.11;99621.45;117428;1208;22807;-55
2021/03/24 06:01:57;;;;;;;7.40;2.60;;;;;;;-1.48;63.23;99633.98;117271;1209;23494;-55
2021/03/24 06:07:15;;;;;;;5.13;2.80;;;;;;;-1.44;62.75;99639.77;113551;1205;23133;-55
2021/03/24 06:10:27;;;;;;;5.20;2.90;;;;;;;-1.45;62.45;99656.84;113472;1212;23297;-54
2021/03/24 06:13:11;;;;;;;6.30;3.10;;;;;;;-1.45;62.78;99648.83;116853;1216;23024;-56
2021/03/24 06:16:43;;;;;;;7.50;3.00;;;;;;;-1.45;62.80;99655.01;116862;1212;23816;-57
2021/03/24 06:19:30;;;;;;;5.80;3.15;;;;;;;-1.39;63.25;99655.28;116373;1218;23006;-56
2021/03/24 06:22:45;;;;;;;10.87;3.23;;;;;;;-1.37;63.22;99642.58;116240;1218;23880;-56
2021/03/24 06:25:27;;;;;;;4.80;3.03;;;;;;;-1.36;62.72;99639.73;116377;1222;22917;-56
2021/03/24 06:28:23;;;;;;;5.75;3.40;;;;;;;-1.35;62.95;99652.09;116229;1218;22984;-56
2021/03/24 06:31:28;;;;;;;6.60;3.20;;;;;;;-1.33;62.89;99652.75;116297;1218;22929;-56
2021/03/24 06:34:16;;;;;;;8.35;3.40;;;;;;;-1.28;62.79;99660.20;116350;1219;22892;-56
2021/03/24 06:36:48;;;;;;;8.60;3.70;;;;;;;-1.29;62.62;99663.89;116259;1218;22886;-56
2021/03/24 06:39:21;;;;;;;5.60;3.30;;;;;;;-1.28;62.33;99657.53;116408;1219;22844;-57
2021/03/24 06:41:59;;;;;;;8.65;4.10;;;;;;;-1.27;62.80;99660.03;116288;1219;22962;-57
2021/03/24 06:44:51;;;;;;;7.05;3.85;;;;;;;-1.23;62.82;99656.00;116365;1219;23078;-57
2021/03/24 06:47:46;;;;;;;7.27;3.77;;;;;;;-1.21;62.73;99659.33;116268;1219;24142;-57
2021/03/24 06:50:20;;;;;;;8.05;4.15;;;;;;;-1.14;62.98;99649.56;116568;1216;22996;-57
2021/03/24 06:53:24;;;;;;;7.00;4.60;;;;;;;-1.08;62.71;99656.88;116583;1215;23645;-57
2021/03/24 06:56:10;;;;;;;6.93;3.67;;;;;;;-1.02;62.81;99665.20;117207;1209;22907;-57
2021/03/24 06:59:14;;;;;;;8.23;5.13;;;;;;;-1.00;62.67;99658.64;117198;1209;23770;-57
2021/03/24 07:02:05;;;;;;;7.97;3.90;;;;;;;-0.94;63.09;99660.61;117247;1209;22943;-56
2021/03/24 07:04:53;;;;;;;7.90;3.87;;;;;;;-0.88;63.02;99665.24;117134;1209;23093;-55
2021/03/24 07:07:59;;;;;;;6.80;4.10;;;;;;;-0.79;62.64;99665.98;117163;1213;22960;-56
2021/03/24 07:10:35;;;;;;;6.30;4.00;;;;;;;-0.74;62.05;99666.28;117159;1209;24228;-56
2021/03/24 07:13:28;;;;;;;7.78;4.20;;;;;;;-0.72;61.86;99672.26;117109;1209;22976;-56
2021/03/24 07:16:15;;;;;;;7.33;3.70;;;;;;;-0.68;61.95;99678.08;117226;1209;22816;-57
2021/03/24 07:18:52;;;;;;;4.93;3.55;;;;;;;-0.66;61.90;99676.06;117113;1214;22865;-57
2021/03/24 07:21:51;;;;;;;7.05;3.83;;;;;;;-0.60;62.23;99676.18;117218;1213;23340;-56
2021/03/24 07:24:18;;;;;;;;;;;;;;;-0.50;61.82;99687.44;117164;1216;22866;-57
2021/03/24 07:27:11;;;;;;;7.95;3.78;;;;;;;-0.43;62.23;99674.14;117225;1209;21502;-57
2021/03/24 07:29:41;;;;;;;12.73;4.53;;;;;;;-0.29;62.58;99691.25;117098;1214;22860;-57
2021/03/24 07:32:14;;;;;;;8.13;3.53;;;;;;;-0.19;61.90;99686.45;117209;1209;22877;-56
2021/03/24 07:34:51;;;;;;;6.23;3.60;;;;;;;-0.12;61.73;99682.83;117131;1212;24932;-57
2021/03/24 07:37:34;;;;;;;7.00;3.10;;;;;;;-0.06;61.83;99687.45;117269;1209;23538;-56
2021/03/24 07:40:36;;;;;;;10.20;4.40;;;;;;;0.04;61.59;99672.94;117101;1209;22931;-56
2021/03/24 07:43:28;;;;;;;7.15;4.05;;;;;;;0.17;62.20;99690.01;117227;1209;23619;-56
2021/03/24 07:46:11;;;;;;;5.93;4.00;;;;;;;0.30;61.81;99687.48;117114;1209;23005;-57
2021/03/24 07:48:51;;;;;;;7.60;3.70;;;;;;;0.42;60.81;99692.39;117224;1215;22995;-56
2021/03/24 07:51:30;;;;;;;10.03;4.60;;;;;;;0.48;60.91;99705.02;117135;1209;22824;-56
2021/03/24 07:54:19;;;;;;;7.70;4.57;;;;;;;0.52;60.88;99695.59;117191;1209;22922;-56
2021/03/24 07:56:55;;;;;;;7.35;4.60;;;;;;;0.56;60.00;99707.60;117155;1212;22963;-57
2021/03/24 07:59:41;;;;;;;11.40;4.03;;;;;;;0.59;60.81;99705.34;117145;1213;23730;-56
2021/03/24 08:02:41;;;;;;;8.27;5.23;;;;;;;0.65;60.90;99699.24;117160;1209;22846;-56
2021/03/24 08:05:34;;;;;;;6.43;4.33;;;;;;;0.72;60.44;99696.65;117144;1209;22841;-56
2021/03/24 08:08:35;;;;;;;9.07;5.00;;;;;;;0.82;60.62;99691.79;117182;1209;22905;-56
2021/03/24 08:11:32;;;;;;;7.33;3.90;;;;;;;0.91;60.85;99690.63;117063;1215;23079;-56
2021/03/24 08:14:08;;;;;;;6.83;3.90;;;;;;;1.00;59.78;99694.03;117140;1210;22893;-57
2021/03/24 08:17:21;;;;;;;8.23;4.47;;;;;;;1.06;59.57;99695.93;117115;1209;22925;-57
2021/03/24 08:20:13;;;;;;;7.55;5.25;;;;;;;1.13;60.55;99696.00;117219;1209;22907;-55
2021/03/24 08:22:51;;;;;;;8.75;4.30;;;;;;;1.21;59.78;99690.48;117118;1215;22829;-56
2021/03/24 08:25:46;;;;;;;8.53;4.70;;;;;;;1.30;60.62;99700.88;117174;1209;23782;-55
2021/03/24 08:28:32;;;;;;;8.47;4.73;;;;;;;1.43;60.11;99689.45;117186;1212;22954;-55
2021/03/24 08:31:43;;;;;;;9.73;5.00;;;;;;;1.53;59.48;99697.98;116867;1212;22897;-56
2021/03/24 08:34:46;;;;;;;9.30;5.00;;;;;;;1.56;59.33;99694.08;117138;1212;23575;-56
2021/03/24 08:38:07;;;;;;;10.57;4.43;;;;;;;1.67;59.12;99697.05;117036;1212;23835;-56
2021/03/24 08:41:06;;;;;;;8.10;4.35;;;;;;;1.78;59.35;99699.18;117161;1215;22913;-56
2021/03/24 08:43:55;;;;;;;8.30;4.90;;;;;;;1.84;58.70;99697.58;117154;1211;22954;-56
2021/03/24 08:46:29;;;;;;;7.63;4.33;;;;;;;1.89;57.97;99715.77;115155;1215;25983;-55
2021/03/24 08:49:29;;;;;;;6.50;4.53;;;;;;;1.88;57.88;99693.45;117215;1212;22948;-56
2021/03/24 08:52:08;;;;;;;8.55;4.15;;;;;;;1.96;58.44;99711.28;116867;1210;23739;-56
2021/03/24 08:54:57;;;;;;;8.00;5.20;;;;;;;2.02;57.86;99684.43;117127;1212;24118;-56
2021/03/24 08:57:32;;;;;;;8.47;4.00;;;;;;;2.05;57.34;99699.33;117133;1212;23479;-56
2021/03/24 09:00:30;;;;;;;7.20;4.70;;;;;;;2.05;57.78;99693.95;117177;1209;22953;-57
2021/03/24 09:03:20;;;;;;;6.63;3.97;;;;;;;2.13;57.74;99697.33;117136;1215;23639;-57
2021/03/24 09:06:14;;;;;;;6.97;4.63;;;;;;;2.24;57.39;99703.16;117211;1207;22899;-57
2021/03/24 09:09:09;;;;;;;13.15;4.70;;;;;;;2.28;57.53;99705.26;117097;1209;25065;-57
2021/03/24 09:11:59;;;;;;;13.10;4.60;;;;;;;2.31;57.66;99712.89;116958;1212;22872;-57
2021/03/24 09:14:36;;;;;;;6.95;4.80;;;;;;;2.35;56.98;99716.85;117069;1212;22910;-57
2021/03/24 09:17:04;;;;;;;14.00;5.50;;;;;;;2.37;56.91;99703.21;117245;1215;24014;-57
2021/03/24 09:20:10;;;;;;;8.23;5.43;;;;;;;2.41;57.30;99717.92;117165;1209;23034;-57
2021/03/24 09:23:03;;;;;;;7.25;5.10;;;;;;;2.45;57.30;99711.13;117209;1209;22847;-57
2021/03/24 09:25:55;;;;;;;6.85;4.50;;;;;;;2.55;57.20;99706.19;117243;1215;23006;-57
2021/03/24 09:28:54;;;;;;;8.20;5.20;;;;;;;2.73;56.82;99713.70;117116;1214;22996;-57
2021/03/24 09:31:48;;;;;;;9.40;5.63;;;;;;;2.84;56.30;99703.17;117208;1209;22954;-57
2021/03/24 09:34:57;;;;;;;8.65;5.20;;;;;;;2.93;56.10;99719.11;117110;1209;22954;-56
2021/03/24 09:37:46;;;;;;;10.18;5.50;;;;;;;3.00;55.99;99703.82;117244;1209;22898;-57
2021/03/24 09:40:32;;;;;;;7.85;4.90;;;;;;;3.10;56.24;99707.76;117002;1209;23035;-58
2021/03/24 09:43:01;;;;;;;10.25;4.90;;;;;;;3.19;55.28;99693.05;117223;1214;22845;-57
2021/03/24 09:45:31;;;;;;;8.57;5.47;;;;;;;3.26;55.27;99703.84;116983;1211;22931;-58
2021/03/24 09:48:00;;;;;;;7.20;4.85;;;;;;;3.32;54.78;99692.23;117132;1210;22933;-57
2021/03/24 09:50:33;;;;;;;7.65;5.20;;;;;;;3.33;54.87;99693.89;117093;1209;23948;-57
2021/03/24 09:53:06;;;;;;;7.90;5.30;;;;;;;3.36;54.84;99692.65;117196;1213;22861;-57
2021/03/24 09:55:44;;;;;;;14.97;8.70;;;;;;;3.38;54.10;99710.27;117111;1209;23812;-57
2021/03/24 09:58:27;;;;;;;12.73;6.35;;;;;;;3.41;54.39;99706.34;117234;1209;23472;-57
2021/03/24 10:01:02;;;;;;;9.05;5.55;;;;;;;3.50;55.51;99697.00;117100;1209;22856;-58
2021/03/24 10:03:33;;;;;;;10.20;6.15;;;;;;;3.66;53.50;99704.66;117217;1209;22842;-57
2021/03/24 10:06:02;;;;;;;22.30;7.80;;;;;;;3.64;53.52;99697.81;117098;1209;22947;-57
2021/03/24 10:08:34;;;;;;;31.60;13.70;;;;;;;3.62;53.47;99699.89;117196;1209;22876;-57
2021/03/24 10:11:09;;;;;;;11.75;6.75;;;;;;;3.59;53.56;99701.16;117039;1209;22901;-58
2021/03/24 10:14:18;;;;;;;18.75;9.25;;;;;;;3.47;53.01;99697.41;117220;1209;23149;-58
2021/03/24 10:16:46;;;;;;;9.33;6.27;;;;;;;3.33;53.38;99688.50;114180;1219;23150;-56
2021/03/24 10:19:27;;;;;;;8.80;6.05;;;;;;;3.29;54.10;99692.66;112931;1216;23156;-56
2021/03/24 10:21:58;;;;;;;9.40;6.10;;;;;;;3.26;53.61;99703.84;116748;1215;23725;-58
2021/03/24 10:24:28;;;;;;;9.50;6.40;;;;;;;3.22;53.17;99704.45;116755;1215;22881;-58
2021/03/24 10:27:04;;;;;;;12.75;6.25;;;;;;;3.20;54.24;99693.89;116667;1216;24065;-58
2021/03/24 10:30:24;;;;;;;12.20;6.40;;;;;;;3.33;54.16;99698.44;116781;1216;24591;-58
2021/03/24 10:33:11;;;;;;;9.40;6.00;;;;;;;3.48;53.18;99696.38;116681;1218;22880;-58
2021/03/24 10:35:48;;;;;;;8.93;5.87;;;;;;;3.55;53.14;99687.27;116807;1215;22869;-58
2021/03/24 10:38:26;;;;;;;12.00;5.80;;;;;;;3.60;52.71;99700.13;116763;1214;24045;-59
2021/03/24 10:41:21;;;;;;;8.70;5.40;;;;;;;3.68;52.18;99705.28;116849;1215;22979;-58
2021/03/24 10:44:19;;;;;;;7.90;5.20;;;;;;;3.78;52.46;99707.55;116714;1215;22926;-58
2021/03/24 10:47:21;;;;;;;11.37;5.60;;;;;;;3.78;51.36;99702.16;116819;1216;22957;-58
2021/03/24 10:50:14;;;;;;;6.00;4.60;;;;;;;3.75;50.47;99700.70;116776;1215;23787;-58
2021/03/24 10:53:18;;;;;;;7.10;5.00;;;;;;;3.72;51.22;99701.14;116969;1215;22835;-58
2021/03/24 10:55:55;;;;;;;6.95;4.05;;;;;;;3.80;50.31;99698.21;117240;1209;22816;-58
2021/03/24 10:58:41;;;;;;;7.40;4.33;;;;;;;3.89;50.47;99696.98;116851;1209;22935;-59
2021/03/24 11:01:25;;;;;;;5.25;4.00;;;;;;;3.90;50.06;99698.60;117227;1209;22947;-58
2021/03/24 11:04:02;;;;;;;6.40;3.87;;;;;;;3.88;50.12;99703.41;117140;1209;22806;-58
2021/03/24 11:06:38;;;;;;;7.73;4.50;;;;;;;3.92;51.03;99687.61;117163;1212;23982;-59
2021/03/24 11:09:16;;;;;;;7.27;3.90;;;;;;;4.01;49.40;99690.93;117126;1214;22997;-58
2021/03/24 11:12:04;;;;;;;5.40;3.23;;;;;;;4.07;48.63;99672.02;117181;1214;22807;-58
2021/03/24 11:14:35;;;;;;;6.40;4.05;;;;;;;4.06;48.56;99678.45;117195;1209;22817;-59
2021/03/24 11:17:07;;;;;;;9.95;3.95;;;;;;;4.13;48.75;99684.67;117247;1215;22790;-59
2021/03/24 11:19:47;;;;;;;5.37;3.20;;;;;;;4.23;48.72;99687.73;117165;1209;22967;-59
2021/03/24 11:22:54;;;;;;;44.15;17.75;;;;;;;4.28;47.52;99680.88;117223;1209;22842;-58
2021/03/24 11:25:31;;;;;;;9.23;4.50;;;;;;;4.29;48.23;99694.16;117261;1209;22835;-59
2021/03/24 11:28:07;;;;;;;5.15;3.35;;;;;;;4.32;48.13;99690.21;117157;1209;22992;-58
2021/03/24 11:30:38;;;;;;;6.80;3.65;;;;;;;4.33;48.60;99699.96;117207;1209;23786;-58
2021/03/24 11:33:31;;;;;;;7.05;3.50;;;;;;;4.38;48.28;99692.03;117136;1212;22907;-58
2021/03/24 11:36:25;;;;;;;4.50;3.00;;;;;;;4.39;46.62;99693.70;117227;1209;22823;-58
2021/03/24 11:39:27;;;;;;;12.67;6.17;;;;;;;4.35;46.63;99695.16;117125;1209;23080;-58
2021/03/24 11:42:19;;;;;;;6.60;3.40;;;;;;;4.30;46.77;99689.59;117183;1209;22860;-58
2021/03/24 11:44:49;;;;;;;5.90;3.55;;;;;;;4.29;47.15;99677.14;117162;1213;22861;-59
2021/03/24 11:47:45;;;;;;;6.05;3.40;;;;;;;4.30;47.10;99679.63;117217;1209;23561;-58
2021/03/24 11:50:16;;;;;;;5.97;3.53;;;;;;;4.36;47.45;99704.91;117127;1209;23448;-58
2021/03/24 11:53:06;;;;;;;12.57;5.67;;;;;;;4.36;45.98;99678.77;117243;1212;23833;-58
2021/03/24 11:55:46;;;;;;;8.07;4.73;;;;;;;4.34;47.15;99680.84;117127;1213;23684;-58
2021/03/24 11:58:51;;;;;;;4.33;2.70;;;;;;;4.43;46.62;99684.14;117215;1209;22840;-57
2021/03/24 12:01:24;;;;;;;3.63;2.60;;;;;;;4.56;46.59;99681.38;117123;1209;22961;-58
2021/03/24 12:04:17;;;;;;;4.60;2.75;;;;;;;4.62;45.21;99670.53;117195;1209;22939;-57
2021/03/24 12:07:09;;;;;;;6.17;2.57;;;;;;;4.70;45.48;99679.44;117216;1214;23038;-57
2021/03/24 12:09:40;;;;;;;2.80;2.30;;;;;;;4.78;45.15;99681.87;117092;1212;22901;-58
2021/03/24 12:12:27;;;;;;;3.63;2.45;;;;;;;4.82;44.25;99694.73;117234;1209;22868;-57
2021/03/24 12:15:28;;;;;;;2.75;2.00;;;;;;;4.76;43.48;99678.59;117103;1209;24186;-57
2021/03/24 12:18:18;;;;;;;4.60;2.10;;;;;;;4.71;43.96;99678.40;116863;1212;23032;-57
2021/03/24 12:20:59;;;;;;;2.70;2.20;;;;;;;4.74;44.08;99680.67;116815;1217;22871;-57
2021/03/24 12:23:30;;;;;;;4.90;2.30;;;;;;;4.81;42.94;99673.34;116868;1212;22887;-57
2021/03/24 12:25:58;;;;;;;8.40;5.30;;;;;;;4.79;42.94;99681.66;115470;1213;24745;-57
2021/03/24 12:28:41;;;;;;;4.10;2.90;;;;;;;4.77;43.43;99667.55;116939;1212;22884;-58